createdAt,value
2019-04-16T00:01:08.139Z,8.83
2019-04-16T00:03:38.903Z,10.00
2019-04-16T00:06:14.814Z,9.20
2019-04-16T00:08:50.063Z,8.95
2019-04-16T00:11:24.564Z,9.15
2019-04-16T00:13:57.954Z,9.53
2019-04-16T00:16:26.743Z,9.33
2019-04-16T00:18:58.050Z,10.03
2019-04-16T00:21:51.186Z,9.13
2019-04-16T00:24:24.505Z,9.30
2019-04-16T00:26:58.070Z,9.33
2019-04-16T00:29:24.893Z,9.98
2019-04-16T00:32:12.605Z,9.80
2019-04-16T00:34:44.504Z,9.60
2019-04-16T00:37:12.283Z,9.88
2019-04-16T00:39:40.973Z,10.15
2019-04-16T00:42:10.426Z,9.53
2019-04-16T00:44:39.135Z,10.05
2019-04-16T00:47:08.205Z,9.95
2019-04-16T00:49:38.049Z,9.58
2019-04-16T00:52:07.406Z,9.88
2019-04-16T00:54:36.176Z,8.85
2019-04-16T00:57:05.184Z,8.98
2019-04-16T00:59:33.955Z,8.55
2019-04-16T01:02:02.799Z,8.50
2019-04-16T01:04:31.550Z,9.18
2019-04-16T01:07:00.497Z,9.28
2019-04-16T01:09:30.090Z,8.60
2019-04-16T01:11:59.166Z,7.95
2019-04-16T01:14:28.105Z,9.13
2019-04-16T01:16:57.163Z,9.33
2019-04-16T01:19:25.920Z,9.08
2019-04-16T01:21:55.192Z,9.00
2019-04-16T01:24:23.949Z,9.48
2019-04-16T01:26:52.625Z,8.80
2019-04-16T01:29:22.059Z,8.58
2019-04-16T01:32:11.381Z,8.50
2019-04-16T01:34:58.620Z,8.75
2019-04-16T01:37:44.908Z,9.08
2019-04-16T01:40:18.446Z,8.78
2019-04-16T01:42:46.337Z,9.18
2019-04-16T01:45:15.068Z,9.48
2019-04-16T01:47:44.244Z,8.95
2019-04-16T01:50:14.084Z,9.43
2019-04-16T01:52:43.041Z,9.73
2019-04-16T01:55:12.052Z,9.40
2019-04-16T01:57:41.003Z,9.65
2019-04-16T02:00:10.810Z,9.55
2019-04-16T02:02:39.783Z,9.85
2019-04-16T02:05:08.854Z,9.68
2019-04-16T02:07:38.840Z,9.35
2019-04-16T02:10:08.126Z,9.85
2019-04-16T02:12:36.945Z,9.68
2019-04-16T02:15:07.525Z,9.48
2019-04-16T02:17:36.237Z,10.80
2019-04-16T02:20:07.467Z,9.18
2019-04-16T02:22:37.028Z,10.82
2019-04-16T02:25:06.228Z,9.53
2019-04-16T02:27:35.153Z,10.32
2019-04-16T02:30:05.682Z,11.22
2019-04-16T02:32:34.530Z,11.00
2019-04-16T02:35:06.024Z,11.12
2019-04-16T02:37:36.346Z,10.32
2019-04-16T02:40:05.515Z,10.68
2019-04-16T02:42:34.538Z,10.15
2019-04-16T02:45:03.760Z,9.80
2019-04-16T02:47:32.525Z,10.48
2019-04-16T02:50:02.178Z,10.50
2019-04-16T02:52:51.061Z,9.65
2019-04-16T02:55:24.904Z,10.30
2019-04-16T02:58:00.095Z,9.73
2019-04-16T03:00:41.102Z,9.58
2019-04-16T03:03:13.620Z,10.10
2019-04-16T03:05:45.492Z,10.30
2019-04-16T03:08:14.367Z,9.70
2019-04-16T03:10:44.611Z,10.38
2019-04-16T03:13:13.869Z,10.85
2019-04-16T03:16:08.919Z,10.23
2019-04-16T03:18:47.552Z,11.83
2019-04-16T03:21:16.621Z,11.03
2019-04-16T03:23:45.358Z,11.12
2019-04-16T03:26:17.592Z,10.72
2019-04-16T03:28:44.718Z,10.98
2019-04-16T03:31:19.500Z,11.60
2019-04-16T03:33:50.578Z,10.35
2019-04-16T03:36:14.670Z,10.85
2019-04-16T03:38:43.841Z,11.80
2019-04-16T03:41:12.759Z,10.20
2019-04-16T03:43:41.487Z,11.38
2019-04-16T03:46:12.772Z,10.40
2019-04-16T03:48:40.902Z,9.95
2019-04-16T03:51:09.603Z,10.38
2019-04-16T03:53:38.318Z,10.70
2019-04-16T03:56:07.075Z,10.48
2019-04-16T03:58:38.628Z,10.18
2019-04-16T04:01:06.508Z,10.35
2019-04-16T04:03:35.209Z,9.93
2019-04-16T04:06:06.850Z,10.68
2019-04-16T04:08:34.329Z,10.28
2019-04-16T04:11:03.011Z,9.98
2019-04-16T04:13:31.702Z,9.80
2019-04-16T04:16:01.630Z,9.45
2019-04-16T04:18:31.190Z,10.32
2019-04-16T04:20:59.880Z,9.55
2019-04-16T04:23:29.409Z,10.15
2019-04-16T04:25:58.203Z,9.18
2019-04-16T04:28:26.939Z,9.58
2019-04-16T04:30:57.700Z,9.55
2019-04-16T04:33:40.373Z,9.40
2019-04-16T04:36:08.397Z,9.63
2019-04-16T04:38:38.499Z,9.80
2019-04-16T04:41:07.863Z,10.05
2019-04-16T04:43:37.174Z,10.00
2019-04-16T04:46:06.150Z,10.53
2019-04-16T04:48:34.924Z,9.33
2019-04-16T04:51:07.242Z,16.70
2019-04-16T04:53:34.227Z,12.88
2019-04-16T04:56:02.908Z,14.07
2019-04-16T04:58:34.102Z,15.00
2019-04-16T05:01:02.548Z,12.82
2019-04-16T05:03:53.549Z,11.48
2019-04-16T05:06:27.817Z,10.53
2019-04-16T05:08:57.550Z,10.05
2019-04-16T05:11:27.477Z,9.53
2019-04-16T05:13:57.023Z,10.03
2019-04-16T05:16:25.843Z,9.75
2019-04-16T05:18:54.855Z,9.90
2019-04-16T05:21:23.539Z,9.75
2019-04-16T05:23:57.024Z,13.70
2019-04-16T05:26:23.113Z,11.15
2019-04-16T05:28:51.911Z,11.05
2019-04-16T05:31:24.557Z,10.35
2019-04-16T05:33:51.309Z,11.00
2019-04-16T05:36:21.571Z,10.58
2019-04-16T05:38:55.529Z,11.10
2019-04-16T05:41:22.802Z,9.65
2019-04-16T05:43:51.748Z,9.95
2019-04-16T05:46:20.434Z,8.98
2019-04-16T05:48:51.386Z,10.58
2019-04-16T05:51:19.790Z,10.78
2019-04-16T05:53:52.237Z,9.65
2019-04-16T05:56:35.551Z,10.80
2019-04-16T05:59:04.295Z,10.85
2019-04-16T06:01:38.045Z,10.28
2019-04-16T06:04:06.808Z,12.65
2019-04-16T06:06:35.574Z,11.93
2019-04-16T06:09:11.912Z,10.68
2019-04-16T06:11:37.679Z,9.53
2019-04-16T06:14:26.237Z,9.95
2019-04-16T06:17:08.557Z,9.70
2019-04-16T06:22:22.205Z,9.13
2019-04-16T06:25:10.859Z,10.58
2019-04-16T06:27:56.680Z,11.63
2019-04-16T06:30:45.346Z,10.35
2019-04-16T06:33:17.678Z,11.85
2019-04-16T06:36:05.964Z,11.83
2019-04-16T06:38:42.837Z,9.95
2019-04-16T06:41:41.197Z,10.93
2019-04-16T06:43:59.673Z,10.63
2019-04-16T06:46:47.951Z,10.75
2019-04-16T06:49:30.890Z,10.80
2019-04-16T06:52:18.125Z,10.35
2019-04-16T06:55:05.130Z,9.40
2019-04-16T06:57:51.535Z,9.38
2019-04-16T07:00:45.046Z,9.40
2019-04-16T07:03:32.620Z,9.93
2019-04-16T07:06:29.466Z,10.20
2019-04-16T07:09:05.798Z,9.73
2019-04-16T07:11:34.886Z,9.65
2019-04-16T07:14:03.771Z,9.23
2019-04-16T07:16:32.740Z,9.65
2019-04-16T07:19:01.916Z,10.50
2019-04-16T07:21:30.634Z,9.60
2019-04-16T07:23:59.773Z,10.72
2019-04-16T07:26:28.636Z,9.78
2019-04-16T07:29:14.188Z,9.95
2019-04-16T07:31:53.489Z,9.38
2019-04-16T07:34:35.849Z,10.35
2019-04-16T07:37:38.675Z,11.05
2019-04-16T07:40:32.503Z,9.48
2019-04-16T07:43:16.346Z,9.70
2019-04-16T07:45:52.107Z,9.48
2019-04-16T07:48:28.270Z,9.88
2019-04-16T07:51:05.554Z,10.98
2019-04-16T07:53:52.463Z,10.15
2019-04-16T07:56:23.813Z,9.25
2019-04-16T07:58:52.518Z,10.35
2019-04-16T08:01:21.513Z,9.80
2019-04-16T08:03:51.969Z,10.60
2019-04-16T08:06:20.772Z,10.18
2019-04-16T08:08:49.870Z,8.88
2019-04-16T08:11:18.829Z,14.28
2019-04-16T08:13:47.546Z,15.03
2019-04-16T08:16:16.295Z,13.00
2019-04-16T08:18:49.466Z,17.02
2019-04-16T08:21:18.199Z,19.23
2019-04-16T08:23:53.849Z,17.62
2019-04-16T08:26:22.890Z,15.53
2019-04-16T08:28:51.579Z,15.08
2019-04-16T08:31:23.830Z,12.75
2019-04-16T08:33:52.586Z,12.93
2019-04-16T08:36:21.319Z,14.73
2019-04-16T08:38:50.032Z,11.65
2019-04-16T08:41:21.391Z,12.47
2019-04-16T08:43:49.482Z,12.65
2019-04-16T08:46:18.201Z,10.50
2019-04-16T08:48:49.329Z,9.93
2019-04-16T08:51:29.697Z,11.08
2019-04-16T08:53:48.113Z,10.88
2019-04-16T08:56:16.833Z,11.60
2019-04-16T08:58:45.668Z,12.00
2019-04-16T09:01:23.260Z,10.70
2019-04-16T09:03:49.047Z,11.33
2019-04-16T09:06:17.837Z,10.98
2019-04-16T09:08:54.542Z,15.20
2019-04-16T09:11:24.073Z,18.92
2019-04-16T09:13:58.038Z,10.32
2019-04-16T09:16:26.920Z,9.95
2019-04-16T09:19:00.434Z,12.43
2019-04-16T09:21:29.213Z,11.90
2019-04-16T09:24:15.775Z,11.40
2019-04-16T09:26:52.692Z,11.43
2019-04-16T09:29:45.447Z,11.70
2019-04-16T09:32:33.273Z,12.98
2019-04-16T09:35:18.417Z,10.43
2019-04-16T09:37:50.701Z,10.55
2019-04-16T09:40:44.974Z,12.00
2019-04-16T09:43:18.426Z,11.12
2019-04-16T09:45:47.957Z,11.60
2019-04-16T09:48:16.685Z,10.98
2019-04-16T09:50:47.816Z,11.12
2019-04-16T09:53:15.864Z,12.00
2019-04-16T09:55:47.466Z,11.65
2019-04-16T09:58:21.759Z,12.10
2019-04-16T10:01:18.278Z,17.30
2019-04-16T10:03:49.333Z,12.30
2019-04-16T10:06:18.145Z,11.63
2019-04-16T10:08:47.177Z,11.68
2019-04-16T10:11:18.538Z,12.20
2019-04-16T10:13:46.850Z,12.70
2019-04-16T10:16:15.590Z,14.83
2019-04-16T10:18:44.295Z,11.63
2019-04-16T10:21:18.757Z,13.68
2019-04-16T10:23:53.827Z,12.58
2019-04-16T10:26:22.587Z,12.35
2019-04-16T10:28:51.308Z,12.60
2019-04-16T10:31:20.305Z,11.48
2019-04-16T10:33:49.040Z,12.00
2019-04-16T10:36:17.763Z,11.57
2019-04-16T10:38:52.415Z,12.23
2019-04-16T10:41:29.223Z,12.05
2019-04-16T10:44:17.235Z,12.58
2019-04-16T10:47:04.980Z,12.40
2019-04-16T10:50:07.759Z,11.70
2019-04-16T10:53:13.713Z,12.50
2019-04-16T10:56:07.461Z,12.10
2019-04-16T10:59:04.086Z,12.55
2019-04-16T11:01:37.093Z,12.47
2019-04-16T11:04:13.911Z,12.33
2019-04-16T11:06:45.296Z,13.15
2019-04-16T11:09:14.109Z,12.55
2019-04-16T11:11:43.010Z,12.73
2019-04-16T11:14:12.106Z,13.35
2019-04-16T11:16:43.106Z,12.55
2019-04-16T11:19:12.381Z,13.20
2019-04-16T11:21:41.707Z,14.45
2019-04-16T11:24:10.451Z,13.15
2019-04-16T11:26:39.424Z,13.88
2019-04-16T11:29:08.719Z,13.15
2019-04-16T11:31:38.032Z,13.28
2019-04-16T11:34:07.764Z,13.13
2019-04-16T11:36:37.278Z,12.85
2019-04-16T11:39:09.112Z,14.90
2019-04-16T11:44:15.238Z,13.83
2019-04-16T11:46:36.739Z,13.10
2019-04-16T11:49:05.611Z,14.30
2019-04-16T11:51:34.482Z,14.00
2019-04-16T11:54:03.222Z,14.03
2019-04-16T11:56:31.915Z,14.10
2019-04-16T11:59:00.960Z,13.98
2019-04-16T12:01:58.120Z,14.63
2019-04-16T12:04:59.014Z,13.85
2019-04-16T12:07:32.799Z,14.00
2019-04-16T12:10:19.414Z,14.83
2019-04-16T12:13:06.215Z,14.68
2019-04-16T12:15:54.352Z,14.47
2019-04-16T12:18:32.942Z,15.30
2019-04-16T12:21:08.048Z,15.18
2019-04-16T12:24:14.020Z,15.40
2019-04-16T12:27:11.309Z,15.35
2019-04-16T12:29:57.458Z,16.65
2019-04-16T12:32:52.647Z,15.20
2019-04-16T12:35:34.751Z,15.65
2019-04-16T12:38:12.004Z,15.55
2019-04-16T12:40:58.094Z,16.15
2019-04-16T12:43:35.834Z,15.80
2019-04-16T12:46:11.925Z,15.72
2019-04-16T12:48:58.892Z,14.75
2019-04-16T12:51:40.989Z,15.53
2019-04-16T12:54:28.892Z,14.23
2019-04-16T12:57:19.952Z,15.63
2019-04-16T13:00:19.737Z,15.50
2019-04-16T13:02:56.968Z,16.02
2019-04-16T13:05:32.318Z,15.23
2019-04-16T13:08:32.518Z,15.25
2019-04-16T13:11:23.157Z,15.40
2019-04-16T13:14:13.589Z,14.47
2019-04-16T13:16:59.804Z,15.05
2019-04-16T13:19:49.514Z,14.70
2019-04-16T13:22:19.941Z,14.85
2019-04-16T13:24:53.254Z,15.05
2019-04-16T13:27:24.387Z,14.20
2019-04-16T13:29:53.598Z,14.38
2019-04-16T13:32:22.519Z,15.38
2019-04-16T13:34:51.310Z,15.48
2019-04-16T13:37:20.004Z,15.58
2019-04-16T13:39:59.278Z,15.40
2019-04-16T13:42:26.064Z,16.20
2019-04-16T13:45:15.263Z,14.83
2019-04-16T13:47:30.358Z,16.30
2019-04-16T13:50:17.603Z,15.68
2019-04-16T13:52:47.156Z,16.32
2019-04-16T13:55:24.839Z,15.95
2019-04-16T13:58:02.915Z,15.70
2019-04-16T14:00:37.193Z,16.32
2019-04-16T14:03:09.984Z,16.80
2019-04-16T14:05:42.521Z,16.62
2019-04-16T14:08:09.298Z,17.05
2019-04-16T14:10:38.076Z,17.30
2019-04-16T14:13:12.133Z,15.78
2019-04-16T14:15:40.375Z,16.07
2019-04-16T14:18:07.998Z,15.65
2019-04-16T14:20:36.702Z,16.77
2019-04-16T14:23:05.782Z,16.52
2019-04-16T14:25:34.504Z,16.60
2019-04-16T14:28:03.752Z,15.88
2019-04-16T14:30:42.755Z,16.80
2019-04-16T14:33:12.205Z,16.52
2019-04-16T14:35:41.036Z,17.07
2019-04-16T14:38:09.725Z,16.77
2019-04-16T14:40:39.720Z,17.12
2019-04-16T14:43:08.861Z,16.30
2019-04-16T14:45:56.984Z,15.55
2019-04-16T14:48:11.835Z,15.43
2019-04-16T14:50:40.874Z,15.80
2019-04-16T14:53:09.637Z,15.80
2019-04-16T14:55:59.930Z,16.70
2019-04-16T14:58:43.252Z,16.23
2019-04-16T15:01:36.031Z,15.93
2019-04-16T15:04:23.847Z,17.07
2019-04-16T15:07:14.378Z,16.52
2019-04-16T15:10:04.960Z,16.85
2019-04-16T15:12:58.719Z,15.68
2019-04-16T15:15:34.532Z,16.57
2019-04-16T15:18:08.451Z,16.17
2019-04-16T15:20:47.648Z,16.40
2019-04-16T15:23:22.567Z,16.85
2019-04-16T15:26:01.801Z,16.45
2019-04-16T15:28:41.669Z,16.73
2019-04-16T15:31:15.939Z,17.60
2019-04-16T15:33:55.459Z,17.42
2019-04-16T15:36:28.114Z,16.15
2019-04-16T15:39:14.451Z,16.75
2019-04-16T15:42:05.633Z,16.50
2019-04-16T15:45:08.918Z,16.12
2019-04-16T15:48:09.127Z,16.20
2019-04-16T15:50:46.333Z,16.45
2019-04-16T15:53:38.774Z,15.75
2019-04-16T15:56:25.282Z,16.52
2019-04-16T15:59:25.045Z,16.40
2019-04-16T16:02:13.855Z,17.25
2019-04-16T16:04:47.259Z,17.23
2019-04-16T16:07:23.995Z,16.15
2019-04-16T16:09:59.595Z,16.10
2019-04-16T16:12:30.105Z,17.25
2019-04-16T16:14:58.840Z,16.48
2019-04-16T16:17:27.560Z,16.82
2019-04-16T16:19:56.608Z,16.42
2019-04-16T16:22:25.560Z,16.80
2019-04-16T16:24:54.382Z,17.45
2019-04-16T16:27:23.136Z,16.80
2019-04-16T16:29:51.811Z,15.98
2019-04-16T16:32:20.580Z,16.15
2019-04-16T16:34:49.554Z,17.52
2019-04-16T16:37:18.525Z,17.37
2019-04-16T16:39:47.471Z,16.17
2019-04-16T16:42:16.267Z,17.02
2019-04-16T16:44:44.947Z,17.20
2019-04-16T16:47:22.286Z,16.75
2019-04-16T16:49:51.006Z,16.97
2019-04-16T16:52:38.907Z,15.80
2019-04-16T16:55:11.035Z,16.32
2019-04-16T16:57:46.185Z,16.97
2019-04-16T17:00:33.510Z,16.55
2019-04-16T17:03:18.437Z,17.25
2019-04-16T17:05:47.649Z,17.20
2019-04-16T17:08:17.108Z,17.35
2019-04-16T17:10:45.871Z,16.97
2019-04-16T17:13:18.565Z,16.27
2019-04-16T17:15:45.103Z,17.65
2019-04-16T17:18:13.842Z,17.73
2019-04-16T17:20:42.785Z,17.92
2019-04-16T17:23:16.434Z,17.40
2019-04-16T17:25:42.009Z,17.25
2019-04-16T17:28:10.742Z,17.57
2019-04-16T17:30:39.424Z,17.80
2019-04-16T17:33:08.215Z,17.35
2019-04-16T17:35:37.306Z,17.30
2019-04-16T17:38:07.179Z,17.85
2019-04-16T17:40:58.729Z,17.30
2019-04-16T17:43:59.911Z,17.70
2019-04-16T17:46:29.419Z,18.52
2019-04-16T17:49:16.184Z,18.07
2019-04-16T17:51:59.037Z,18.23
2019-04-16T17:54:34.594Z,18.07
2019-04-16T17:57:14.224Z,18.15
2019-04-16T17:59:54.093Z,18.10
2019-04-16T18:02:40.823Z,18.82
2019-04-16T18:05:34.706Z,17.75
2019-04-16T18:08:34.782Z,18.40
2019-04-16T18:11:31.644Z,19.82
2019-04-16T18:14:13.078Z,18.27
2019-04-16T18:16:59.352Z,18.85
2019-04-16T18:19:47.109Z,19.60
2019-04-16T18:22:22.134Z,19.80
2019-04-16T18:25:13.562Z,18.48
2019-04-16T18:27:52.419Z,19.62
2019-04-16T18:30:37.426Z,18.73
2019-04-16T18:33:37.082Z,18.60
2019-04-16T18:36:18.912Z,18.90
2019-04-16T18:39:05.876Z,19.50
2019-04-16T18:41:45.879Z,18.80
2019-04-16T18:44:34.489Z,19.35
2019-04-16T18:47:21.056Z,19.07
2019-04-16T18:49:52.423Z,19.10
2019-04-16T18:52:21.148Z,19.25
2019-04-16T18:54:50.015Z,18.40
2019-04-16T18:57:19.035Z,21.48
2019-04-16T18:59:47.932Z,22.70
2019-04-16T19:02:16.993Z,19.17
2019-04-16T19:04:45.763Z,19.50
2019-04-16T19:07:14.471Z,18.15
2019-04-16T19:09:43.252Z,18.77
2019-04-16T19:12:12.639Z,19.05
2019-04-16T19:14:41.355Z,18.40
2019-04-16T19:17:10.633Z,18.87
2019-04-16T19:19:44.510Z,18.17
2019-04-16T19:22:10.219Z,18.65
2019-04-16T19:24:38.940Z,20.95
2019-04-16T19:27:07.691Z,18.07
2019-04-16T19:29:37.142Z,19.50
2019-04-16T19:32:06.094Z,19.80
2019-04-16T19:34:35.237Z,20.00
2019-04-16T19:37:05.077Z,18.30
2019-04-16T19:39:33.799Z,19.25
2019-04-16T19:42:02.514Z,18.40
2019-04-16T19:44:33.725Z,19.05
2019-04-16T19:47:02.661Z,18.03
2019-04-16T19:49:31.376Z,18.40
2019-04-16T19:52:00.051Z,17.52
2019-04-16T19:54:31.670Z,18.17
2019-04-16T19:57:00.460Z,17.20
2019-04-16T19:59:29.238Z,17.15
2019-04-16T20:01:59.736Z,17.60
2019-04-16T20:04:28.414Z,17.77
2019-04-16T20:07:01.153Z,17.05
2019-04-16T20:09:28.105Z,17.17
2019-04-16T20:11:57.076Z,16.85
2019-04-16T20:14:25.801Z,17.57
2019-04-16T20:16:54.498Z,17.35
2019-04-16T20:19:23.515Z,18.35
2019-04-16T20:21:52.236Z,19.15
2019-04-16T20:24:22.501Z,18.05
2019-04-16T20:26:51.701Z,17.62
2019-04-16T20:29:20.423Z,18.42
2019-04-16T20:31:49.114Z,17.00
2019-04-16T20:34:18.434Z,17.25
2019-04-16T20:36:47.182Z,17.07
2019-04-16T20:39:17.083Z,17.00
2019-04-16T20:41:52.767Z,17.65
2019-04-16T20:44:17.943Z,16.52
2019-04-16T20:46:46.711Z,17.17
2019-04-16T20:49:16.874Z,16.37
2019-04-16T20:51:46.407Z,16.10
2019-04-16T20:54:15.091Z,16.82
2019-04-16T20:56:43.811Z,18.07
2019-04-16T20:59:12.794Z,17.48
2019-04-16T21:01:41.779Z,16.73
2019-04-16T21:04:10.478Z,16.82
2019-04-16T21:06:41.850Z,16.97
2019-04-16T21:09:09.891Z,15.72
2019-04-16T21:11:41.020Z,17.90
2019-04-16T21:14:09.026Z,17.05
2019-04-16T21:16:37.986Z,17.50
2019-04-16T21:19:21.710Z,17.05
2019-04-16T21:21:38.154Z,15.80
2019-04-16T21:24:08.352Z,16.60
2019-04-16T21:26:37.822Z,17.15
2019-04-16T21:29:14.417Z,17.02
2019-04-16T21:31:46.966Z,16.95
2019-04-16T21:34:29.653Z,16.60
2019-04-16T21:37:11.682Z,17.05
2019-04-16T21:39:51.362Z,15.78
2019-04-16T21:42:18.718Z,16.70
2019-04-16T21:44:47.451Z,15.10
2019-04-16T21:47:16.178Z,15.93
2019-04-16T21:49:45.917Z,16.12
2019-04-16T21:52:14.810Z,16.07
2019-04-16T21:54:43.590Z,16.50
2019-04-16T21:57:13.552Z,15.35
2019-04-16T21:59:42.920Z,16.70
2019-04-16T22:02:17.292Z,16.07
2019-04-16T22:04:47.054Z,15.78
2019-04-16T22:07:15.752Z,15.38
2019-04-16T22:09:44.468Z,14.95
2019-04-16T22:12:15.429Z,15.05
2019-04-16T22:14:43.679Z,15.23
2019-04-16T22:17:12.466Z,14.35
2019-04-16T22:19:53.218Z,15.13
2019-04-16T22:22:15.003Z,14.93
2019-04-16T22:24:42.300Z,14.38
2019-04-16T22:27:11.000Z,14.63
2019-04-16T22:29:39.700Z,14.95
2019-04-16T22:32:08.796Z,13.50
2019-04-16T22:34:38.820Z,15.45
2019-04-16T22:37:07.964Z,14.80
2019-04-16T22:43:06.197Z,14.90
2019-04-16T22:45:39.809Z,13.80
2019-04-16T22:48:08.804Z,13.25
2019-04-16T22:50:38.663Z,13.83
2019-04-16T22:53:07.802Z,13.62
2019-04-16T22:55:36.437Z,14.18
2019-04-16T22:58:05.493Z,13.58
2019-04-16T23:00:44.491Z,14.23
2019-04-16T23:03:16.641Z,13.68
2019-04-16T23:05:45.039Z,13.80
2019-04-16T23:08:13.741Z,13.13
2019-04-16T23:10:42.510Z,13.08
2019-04-16T23:13:11.214Z,13.53
2019-04-16T23:15:40.790Z,13.53
2019-04-16T23:18:09.804Z,12.98
2019-04-16T23:20:40.637Z,13.15
2019-04-16T23:23:09.649Z,12.95
2019-04-16T23:25:38.868Z,13.08
2019-04-16T23:28:10.972Z,12.65
2019-04-16T23:30:38.560Z,12.50
2019-04-16T23:33:07.647Z,12.55
2019-04-16T23:35:43.180Z,12.50
2019-04-16T23:38:07.050Z,12.73
2019-04-16T23:40:36.058Z,13.55
2019-04-16T23:43:21.913Z,12.25
2019-04-16T23:46:10.286Z,12.88
2019-04-16T23:48:51.023Z,12.10
2019-04-16T23:51:28.707Z,13.10
2019-04-16T23:54:20.566Z,13.50
2019-04-16T23:57:05.400Z,11.43
2019-04-16T23:59:42.744Z,13.08
